createdAt,value
2022-10-05T00:00:47.313Z,16.02
2022-10-05T00:05:50.860Z,16.01
2022-10-05T00:10:55.198Z,16.00
2022-10-05T00:16:01.117Z,16.00
2022-10-05T00:21:10.116Z,16.01
2022-10-05T00:26:20.732Z,16.01
2022-10-05T00:31:26.741Z,15.98
2022-10-05T00:36:29.749Z,15.95
2022-10-05T00:41:45.785Z,15.97
2022-10-05T00:46:57.657Z,15.93
2022-10-05T00:52:09.475Z,15.91
2022-10-05T00:57:28.502Z,15.86
2022-10-05T01:02:45.074Z,15.82
2022-10-05T01:07:56.472Z,15.81
2022-10-05T01:13:09.030Z,15.77
2022-10-05T01:18:19.460Z,15.77
2022-10-05T01:24:01.913Z,15.74
2022-10-05T01:29:12.232Z,15.66
2022-10-05T01:34:28.947Z,15.59
2022-10-05T01:39:44.029Z,15.50
2022-10-05T01:44:57.956Z,15.42
2022-10-05T01:50:04.666Z,15.34
2022-10-05T01:55:19.896Z,15.29
2022-10-05T02:00:24.532Z,15.29
2022-10-05T02:05:32.254Z,15.29
2022-10-05T02:10:39.746Z,15.30
2022-10-05T02:15:47.857Z,15.27
2022-10-05T02:20:52.378Z,15.28
2022-10-05T02:25:57.468Z,15.29
2022-10-05T02:31:08.120Z,15.30
2022-10-05T02:36:15.947Z,15.32
2022-10-05T02:41:31.516Z,15.32
2022-10-05T02:46:43.029Z,15.33
2022-10-05T02:51:52.862Z,15.33
2022-10-05T02:57:01.581Z,15.35
2022-10-05T03:02:16.064Z,15.33
2022-10-05T03:07:25.075Z,15.32
2022-10-05T03:12:51.929Z,15.32
2022-10-05T03:18:11.686Z,15.32
2022-10-05T03:23:25.839Z,15.28
2022-10-05T03:28:36.778Z,15.28
2022-10-05T03:33:48.324Z,15.31
2022-10-05T03:39:03.007Z,15.33
2022-10-05T03:44:18.652Z,15.36
2022-10-05T03:49:33.171Z,15.35
2022-10-05T03:54:40.474Z,15.36
2022-10-05T03:59:53.750Z,15.38
2022-10-05T04:05:04.083Z,15.42
2022-10-05T04:10:15.785Z,15.41
2022-10-05T04:15:24.687Z,15.43
2022-10-05T04:20:35.645Z,15.44
2022-10-05T04:25:45.396Z,15.42
2022-10-05T04:30:51.672Z,15.44
2022-10-05T04:36:09.634Z,15.46
2022-10-05T04:41:26.529Z,15.46
2022-10-05T04:46:43.944Z,15.46
2022-10-05T04:51:59.208Z,15.47
2022-10-05T04:57:06.870Z,15.48
2022-10-05T05:02:23.548Z,15.47
2022-10-05T05:07:41.590Z,15.46
2022-10-05T05:12:58.915Z,15.48
2022-10-05T05:18:34.183Z,15.44
2022-10-05T05:23:45.509Z,15.45
2022-10-05T05:28:55.664Z,15.45
2022-10-05T05:34:06.177Z,15.43
2022-10-05T05:39:28.185Z,15.43
2022-10-05T05:44:39.065Z,15.44
2022-10-05T05:49:53.539Z,15.41
2022-10-05T05:55:06.031Z,15.41
2022-10-05T06:00:20.221Z,15.43
2022-10-05T06:05:34.321Z,15.43
2022-10-05T06:10:46.796Z,15.42
2022-10-05T06:15:55.262Z,15.40
2022-10-05T06:21:03.483Z,15.43
2022-10-05T06:26:18.506Z,15.42
2022-10-05T06:31:36.705Z,15.42
2022-10-05T06:36:45.573Z,15.46
2022-10-05T06:42:07.281Z,15.51
2022-10-05T06:47:51.589Z,15.58
2022-10-05T06:53:28.568Z,15.62
2022-10-05T06:58:49.528Z,15.66
2022-10-05T07:04:09.543Z,15.72
2022-10-05T07:09:26.877Z,15.74
2022-10-05T07:14:49.289Z,15.74
2022-10-05T07:20:04.089Z,15.78
2022-10-05T07:25:14.728Z,15.79
2022-10-05T07:30:21.572Z,15.81
2022-10-05T07:35:51.717Z,15.82
2022-10-05T07:41:00.220Z,15.84
2022-10-05T07:46:14.490Z,15.83
2022-10-05T07:51:28.668Z,15.86
2022-10-05T07:56:39.130Z,15.88
2022-10-05T08:01:48.529Z,15.87
2022-10-05T08:06:56.521Z,15.89
2022-10-05T08:12:09.051Z,15.93
2022-10-05T08:17:25.495Z,15.97
2022-10-05T08:22:35.786Z,16.03
2022-10-05T08:27:47.306Z,16.06
2022-10-05T08:32:57.826Z,16.11
2022-10-05T08:38:03.798Z,16.14
2022-10-05T08:43:36.403Z,16.19
2022-10-05T08:49:05.534Z,16.25
2022-10-05T08:54:32.029Z,16.34
2022-10-05T09:00:03.198Z,16.41
2022-10-05T09:05:34.295Z,16.47
2022-10-05T09:11:16.221Z,16.54
2022-10-05T09:16:37.486Z,16.67
2022-10-05T09:21:53.199Z,16.79
2022-10-05T09:27:03.429Z,16.97
2022-10-05T09:32:32.892Z,17.13
2022-10-05T09:38:10.108Z,17.37
2022-10-05T09:43:42.651Z,17.59
2022-10-05T09:49:18.483Z,17.69
2022-10-05T09:54:53.230Z,17.85
2022-10-05T10:00:21.662Z,18.00
2022-10-05T10:05:39.268Z,18.07
2022-10-05T10:11:01.515Z,18.12
2022-10-05T10:16:31.262Z,18.07
2022-10-05T10:22:12.577Z,17.97
2022-10-05T10:27:34.856Z,18.00
2022-10-05T10:33:20.021Z,18.00
2022-10-05T10:38:31.606Z,18.03
2022-10-05T10:43:51.134Z,18.03
2022-10-05T10:49:01.882Z,18.07
2022-10-05T10:54:30.098Z,18.10
2022-10-05T11:00:07.109Z,18.19
2022-10-05T11:05:32.616Z,18.36
2022-10-05T11:11:11.956Z,18.58
2022-10-05T11:16:47.595Z,18.67
2022-10-05T11:22:04.751Z,18.77
2022-10-05T11:27:17.518Z,18.91
2022-10-05T11:32:33.573Z,19.00
2022-10-05T11:37:49.880Z,19.03
2022-10-05T11:43:23.370Z,19.13
2022-10-05T11:48:42.361Z,19.32
2022-10-05T11:53:57.568Z,19.48
2022-10-05T11:59:08.783Z,19.49
2022-10-05T12:04:21.213Z,19.44
2022-10-05T12:10:04.875Z,19.56
2022-10-05T12:15:20.055Z,19.66
2022-10-05T12:20:29.482Z,19.64
2022-10-05T12:25:35.359Z,19.64
2022-10-05T12:31:01.194Z,19.58
2022-10-05T12:36:12.842Z,19.61
2022-10-05T12:41:22.200Z,19.69
2022-10-05T12:46:32.774Z,19.69
2022-10-05T12:51:44.491Z,19.71
2022-10-05T12:56:54.959Z,19.61
2022-10-05T13:02:08.675Z,19.68
2022-10-05T13:07:35.236Z,19.80
2022-10-05T13:12:50.009Z,19.74
2022-10-05T13:18:05.831Z,19.63
2022-10-05T13:23:17.555Z,19.74
2022-10-05T13:28:31.202Z,19.75
2022-10-05T13:33:55.111Z,19.86
2022-10-05T13:39:04.604Z,19.81
2022-10-05T13:44:19.451Z,19.69
2022-10-05T13:49:28.980Z,19.79
2022-10-05T13:54:43.026Z,19.67
2022-10-05T13:59:54.418Z,19.65
2022-10-05T14:05:02.029Z,19.59
2022-10-05T14:10:13.952Z,19.45
2022-10-05T14:15:23.029Z,19.32
2022-10-05T14:20:29.284Z,19.29
2022-10-05T14:25:50.241Z,19.25
2022-10-05T14:30:59.264Z,19.19
2022-10-05T14:36:02.691Z,19.16
2022-10-05T14:41:18.209Z,19.11
2022-10-05T14:46:27.173Z,19.03
2022-10-05T14:51:33.101Z,19.03
2022-10-05T14:56:50.718Z,18.97
2022-10-05T15:01:59.430Z,18.96
2022-10-05T15:07:14.681Z,18.94
2022-10-05T15:12:26.137Z,18.88
2022-10-05T15:17:37.846Z,18.82
2022-10-05T15:22:51.252Z,18.73
2022-10-05T15:28:12.548Z,18.72
2022-10-05T15:33:23.932Z,18.62
2022-10-05T15:38:32.424Z,18.50
2022-10-05T15:43:47.341Z,18.48
2022-10-05T15:49:01.853Z,18.43
2022-10-05T15:54:26.404Z,18.37
2022-10-05T15:59:40.423Z,18.31
2022-10-05T16:04:52.241Z,18.26
2022-10-05T16:10:01.241Z,18.19
2022-10-05T16:15:21.762Z,18.15
2022-10-05T16:20:36.883Z,18.10
2022-10-05T16:25:54.910Z,18.06
2022-10-05T16:31:07.221Z,18.03
2022-10-05T16:36:22.806Z,17.97
2022-10-05T16:41:34.994Z,17.92
2022-10-05T16:46:46.836Z,17.84
2022-10-05T16:51:57.553Z,17.80
2022-10-05T16:57:08.324Z,17.78
2022-10-05T17:02:24.972Z,17.75
2022-10-05T17:07:55.806Z,17.71
2022-10-05T17:13:07.096Z,17.71
2022-10-05T17:18:31.937Z,17.65
2022-10-05T17:23:51.416Z,17.65
2022-10-05T17:29:01.928Z,17.63
2022-10-05T17:34:26.623Z,17.64
2022-10-05T17:39:54.050Z,17.64
2022-10-05T17:45:00.033Z,17.64
2022-10-05T17:50:31.229Z,17.65
2022-10-05T17:55:46.943Z,17.65
2022-10-05T18:01:07.163Z,17.65
2022-10-05T18:06:32.066Z,17.64
2022-10-05T18:11:42.037Z,17.64
2022-10-05T18:16:58.279Z,17.62
2022-10-05T18:22:10.947Z,17.64
2022-10-05T18:27:40.180Z,17.63
2022-10-05T18:33:14.289Z,17.67
2022-10-05T18:38:32.716Z,17.68
2022-10-05T18:43:42.684Z,17.69
2022-10-05T18:48:54.184Z,17.74
2022-10-05T18:54:11.168Z,17.77
2022-10-05T18:59:40.540Z,17.77
2022-10-05T19:05:01.004Z,17.77
2022-10-05T19:10:14.903Z,17.81
2022-10-05T19:15:26.433Z,17.78
2022-10-05T19:20:37.347Z,17.71
2022-10-05T19:25:49.407Z,17.33
2022-10-05T19:31:06.210Z,17.47
2022-10-05T19:36:24.534Z,17.54
2022-10-05T19:41:38.388Z,17.54
2022-10-05T19:47:04.818Z,17.53
2022-10-05T19:52:14.361Z,17.50
2022-10-05T19:57:18.914Z,17.54
2022-10-05T20:02:26.912Z,17.52
2022-10-05T20:07:29.939Z,17.44
2022-10-05T20:12:55.892Z,16.82
2022-10-05T20:18:16.189Z,16.17
2022-10-05T20:23:23.616Z,15.54
2022-10-05T20:28:34.249Z,15.23
2022-10-05T20:33:37.273Z,14.97
2022-10-05T20:38:41.347Z,14.99
2022-10-05T20:43:45.768Z,14.95
2022-10-05T20:48:48.867Z,14.86
2022-10-05T20:53:51.835Z,14.84
2022-10-05T20:58:56.235Z,14.79
2022-10-05T21:03:59.911Z,14.70
2022-10-05T21:09:03.357Z,14.71
2022-10-05T21:14:07.803Z,14.73
2022-10-05T21:19:13.150Z,14.71
2022-10-05T21:24:17.369Z,14.75
2022-10-05T21:29:22.189Z,14.70
2022-10-05T21:34:25.224Z,14.79
2022-10-05T21:39:28.072Z,14.87
2022-10-05T21:44:32.896Z,14.76
2022-10-05T21:49:37.253Z,14.74
2022-10-05T21:54:40.345Z,14.71
2022-10-05T21:59:45.417Z,14.67
2022-10-05T22:04:48.470Z,14.65
2022-10-05T22:09:52.233Z,14.64
2022-10-05T22:14:56.438Z,14.70
2022-10-05T22:20:00.374Z,14.69
2022-10-05T22:25:03.544Z,14.64
2022-10-05T22:30:09.458Z,14.63
2022-10-05T22:35:12.463Z,14.54
2022-10-05T22:40:15.498Z,14.47
2022-10-05T22:45:19.921Z,14.39
2022-10-05T22:50:22.851Z,14.35
2022-10-05T22:55:25.995Z,14.34
2022-10-05T23:00:53.476Z,14.27
2022-10-05T23:05:57.680Z,14.16
2022-10-05T23:11:04.668Z,14.13
2022-10-05T23:16:11.045Z,14.09
2022-10-05T23:21:14.018Z,14.06
2022-10-05T23:26:17.771Z,13.99
2022-10-05T23:31:25.384Z,13.93
2022-10-05T23:36:32.305Z,13.91
2022-10-05T23:41:35.504Z,13.89
2022-10-05T23:46:40.289Z,13.88
2022-10-05T23:51:44.912Z,13.82
2022-10-05T23:56:47.961Z,13.78
